Time,TemperatureF,DewpointF,PressureIn,WindDirection,WindDirectionDegrees,WindSpeedMPH,WindSpeedGustMPH,Humidity,HourlyPrecipIn,Conditions,Clouds,dailyrainin,SoftwareType,DateUTC
2013-05-24 00:02:00,66.0,55.0,30.07,North,351,0.0,10.0,67,0.00,,,0.00,,2013-05-24 05:02:00,
2013-05-24 00:12:00,66.0,55.0,30.07,North,351,0.0,10.0,67,0.00,,,0.00,,2013-05-24 05:12:00,
2013-05-24 00:22:00,66.0,55.0,30.08,North,351,0.0,10.0,67,0.00,,,0.00,,2013-05-24 05:22:00,
2013-05-24 00:32:00,66.0,55.0,30.08,North,351,0.0,10.0,67,0.00,,,0.00,,2013-05-24 05:32:00,
2013-05-24 00:42:00,66.0,55.0,30.08,North,351,0.0,10.0,67,0.00,,,0.00,,2013-05-24 05:42:00,
2013-05-24 00:52:00,66.0,55.0,30.09,North,351,0.0,10.0,67,0.00,,,0.00,,2013-05-24 05:52:00,
2013-05-24 01:01:00,66.0,55.0,30.09,North,351,0.0,10.0,67,0.00,,,0.00,,2013-05-24 06:01:00,
2013-05-24 01:12:00,66.0,55.0,30.09,North,351,0.0,10.0,67,0.00,,,0.00,,2013-05-24 06:12:00,
2013-05-24 01:21:00,66.0,55.0,30.10,North,351,0.0,10.0,67,0.00,,,0.00,,2013-05-24 06:21:00,
2013-05-24 01:32:00,66.0,55.0,30.10,North,351,0.0,10.0,67,0.00,,,0.00,,2013-05-24 06:32:00,
2013-05-24 01:41:00,66.0,55.0,30.10,North,351,0.0,10.0,67,0.00,,,0.00,,2013-05-24 06:41:00,
2013-05-24 01:52:00,66.0,55.0,30.10,North,351,0.0,10.0,67,0.00,,,0.00,,2013-05-24 06:52:00,
2013-05-24 02:01:00,66.0,55.0,30.11,North,351,0.0,10.0,67,0.00,,,0.00,,2013-05-24 07:01:00,
2013-05-24 02:11:00,66.0,55.0,30.11,North,351,0.0,10.0,67,0.00,,,0.00,,2013-05-24 07:11:00,
2013-05-24 02:22:00,66.0,55.0,30.11,North,351,0.0,10.0,67,0.00,,,0.00,,2013-05-24 07:22:00,
2013-05-24 02:32:00,66.0,55.0,30.12,North,351,0.0,10.0,67,0.00,,,0.00,,2013-05-24 07:32:00,
2013-05-24 02:42:00,66.0,55.0,30.12,North,351,0.0,10.0,67,0.00,,,0.00,,2013-05-24 07:42:00,
2013-05-24 02:52:00,66.0,55.0,30.12,North,351,0.0,10.0,67,0.00,,,0.00,,2013-05-24 07:52:00,
2013-05-24 03:02:00,66.0,55.0,30.12,North,351,0.0,10.0,67,0.00,,,0.00,,2013-05-24 08:02:00,
2013-05-24 03:11:00,66.0,55.0,30.12,North,351,0.0,10.0,67,0.00,,,0.00,,2013-05-24 08:11:00,
2013-05-24 03:22:00,66.0,55.0,30.12,North,351,0.0,10.0,67,0.00,,,0.00,,2013-05-24 08:22:00,
2013-05-24 03:32:00,66.0,55.0,30.13,North,351,0.0,10.0,67,0.00,,,0.00,,2013-05-24 08:32:00,
2013-05-24 03:42:00,66.0,55.0,30.13,North,351,0.0,10.0,67,0.00,,,0.00,,2013-05-24 08:42:00,
2013-05-24 03:52:00,66.0,55.0,30.13,North,351,0.0,10.0,67,0.00,,,0.00,,2013-05-24 08:52:00,
2013-05-24 04:01:00,66.0,55.0,30.13,North,351,0.0,10.0,67,0.00,,,0.00,,2013-05-24 09:01:00,
2013-05-24 04:11:00,66.0,55.0,30.13,North,351,0.0,10.0,67,0.00,,,0.00,,2013-05-24 09:11:00,
2013-05-24 04:21:00,66.0,55.0,30.14,North,351,0.0,10.0,67,0.00,,,0.00,,2013-05-24 09:21:00,
2013-05-24 04:32:00,66.0,55.0,30.14,North,351,0.0,10.0,67,0.00,,,0.00,,2013-05-24 09:32:00,
2013-05-24 04:42:00,66.0,55.0,30.14,North,351,0.0,10.0,67,0.00,,,0.00,,2013-05-24 09:42:00,
2013-05-24 04:53:00,66.0,55.0,30.15,North,351,0.0,10.0,67,0.00,,,0.00,,2013-05-24 09:53:00,
2013-05-24 05:02:00,66.0,55.0,30.15,North,351,0.0,10.0,67,0.00,,,0.00,,2013-05-24 10:02:00,
2013-05-24 05:12:00,66.0,55.0,30.15,North,351,0.0,10.0,67,0.00,,,0.00,,2013-05-24 10:12:00,
2013-05-24 05:22:00,66.0,55.0,30.16,North,351,0.0,10.0,67,0.00,,,0.00,,2013-05-24 10:22:00,
2013-05-24 05:32:00,66.0,55.0,30.16,North,351,0.0,10.0,67,0.00,,,0.00,,2013-05-24 10:32:00,
2013-05-24 05:42:00,66.0,55.0,30.16,North,351,0.0,10.0,67,0.00,,,0.00,,2013-05-24 10:42:00,
2013-05-24 05:52:00,66.0,55.0,30.16,North,351,0.0,10.0,67,0.00,,,0.00,,2013-05-24 10:52:00,
2013-05-24 06:02:00,66.0,55.0,30.18,North,351,0.0,10.0,67,0.00,,,0.00,,2013-05-24 11:02:00,
2013-05-24 06:12:00,66.0,55.0,30.18,North,351,0.0,10.0,67,0.00,,,0.00,,2013-05-24 11:12:00,
2013-05-24 06:22:00,66.0,55.0,30.18,North,351,0.0,10.0,67,0.00,,,0.00,,2013-05-24 11:22:00,
2013-05-24 06:32:00,66.0,55.0,30.20,North,351,0.0,10.0,67,0.00,,,0.00,,2013-05-24 11:32:00,
2013-05-24 06:42:00,66.0,55.0,30.20,North,351,0.0,10.0,67,0.00,,,0.00,,2013-05-24 11:42:00,
2013-05-24 06:51:00,66.0,55.0,30.20,North,351,0.0,10.0,67,0.00,,,0.00,,2013-05-24 11:51:00,
2013-05-24 07:02:00,66.0,55.0,30.20,North,351,0.0,10.0,67,0.00,,,0.00,,2013-05-24 12:02:00,
2013-05-24 07:11:00,66.0,55.0,30.20,North,351,0.0,10.0,67,0.00,,,0.00,,2013-05-24 12:11:00,
2013-05-24 07:21:00,66.0,55.0,30.20,North,351,0.0,10.0,67,0.00,,,0.00,,2013-05-24 12:21:00,
2013-05-24 07:32:00,52.0,46.0,30.23,NE,53,1.0,5.0,80,0.00,,,0.00,,2013-05-24 12:32:00,
2013-05-24 07:42:00,52.0,46.0,30.23,NE,53,1.0,5.0,80,0.00,,,0.00,,2013-05-24 12:42:00,
2013-05-24 07:52:00,52.0,46.0,30.23,North,351,0.0,7.0,79,0.00,,,0.00,,2013-05-24 12:52:00,
2013-05-24 08:02:00,52.0,45.0,30.24,NNE,19,1.0,8.0,78,0.00,,,0.00,,2013-05-24 13:02:00,
2013-05-24 08:11:00,52.0,45.0,30.24,NNE,19,1.0,8.0,78,0.00,,,0.00,,2013-05-24 13:11:00,
2013-05-24 08:21:00,53.0,46.0,30.26,NE,55,1.0,8.0,78,0.00,,,0.00,,2013-05-24 13:21:00,
2013-05-24 08:32:00,54.0,47.0,30.26,North,4,0.0,5.0,77,0.00,,,0.00,,2013-05-24 13:32:00,
2013-05-24 08:41:00,54.0,47.0,30.26,North,4,0.0,5.0,77,0.00,,,0.00,,2013-05-24 13:41:00,
2013-05-24 08:52:00,55.0,47.0,30.27,NE,41,1.0,5.0,75,0.00,,,0.00,,2013-05-24 13:52:00,
2013-05-24 09:01:00,55.0,47.0,30.27,NE,34,0.0,5.0,74,0.00,,,0.00,,2013-05-24 14:01:00,
2013-05-24 09:11:00,55.0,47.0,30.27,NE,34,0.0,5.0,74,0.00,,,0.00,,2013-05-24 14:11:00,
2013-05-24 09:21:00,56.0,47.0,30.28,ENE,71,0.0,5.0,72,0.00,,,0.00,,2013-05-24 14:21:00,
2013-05-24 09:31:00,57.0,48.0,30.28,ENE,65,1.0,5.0,72,0.00,,,0.00,,2013-05-24 14:31:00,
2013-05-24 09:42:00,57.0,48.0,30.28,ENE,65,1.0,5.0,72,0.00,,,0.00,,2013-05-24 14:42:00,
2013-05-24 09:52:00,57.0,48.0,30.28,North,1,0.0,6.0,71,0.00,,,0.00,,2013-05-24 14:52:00,
2013-05-24 10:02:00,58.0,48.0,30.28,North,355,0.0,7.0,70,0.00,,,0.00,,2013-05-24 15:02:00,
2013-05-24 10:11:00,58.0,48.0,30.28,North,355,0.0,7.0,70,0.00,,,0.00,,2013-05-24 15:11:00,
2013-05-24 10:21:00,59.0,49.0,30.28,NNE,22,0.0,3.0,70,0.00,,,0.00,,2013-05-24 15:21:00,
2013-05-24 10:32:00,60.0,49.0,30.28,NE,38,0.0,5.0,66,0.00,,,0.00,,2013-05-24 15:32:00,
2013-05-24 10:43:00,60.0,49.0,30.28,NE,38,0.0,5.0,66,0.00,,,0.00,,2013-05-24 15:43:00,
2013-05-24 10:52:00,60.0,48.0,30.28,NE,48,0.0,3.0,65,0.00,,,0.00,,2013-05-24 15:52:00,
2013-05-24 11:03:00,61.0,49.0,30.28,NNE,29,0.0,6.0,65,0.00,,,0.00,,2013-05-24 16:03:00,
2013-05-24 11:12:00,61.0,49.0,30.28,NNE,29,0.0,6.0,65,0.00,,,0.00,,2013-05-24 16:12:00,
2013-05-24 11:22:00,61.0,48.0,30.28,NNE,33,0.0,7.0,63,0.00,,,0.00,,2013-05-24 16:22:00,
2013-05-24 11:32:00,62.0,47.0,30.28,NNE,30,1.0,7.0,59,0.00,,,0.00,,2013-05-24 16:32:00,
2013-05-24 11:42:00,62.0,47.0,30.28,NNE,30,1.0,7.0,59,0.00,,,0.00,,2013-05-24 16:42:00,
2013-05-24 11:52:00,64.0,48.0,30.27,NE,40,0.0,3.0,57,0.00,,,0.00,,2013-05-24 16:52:00,
2013-05-24 12:02:00,64.0,48.0,30.27,NE,35,0.0,5.0,57,0.00,,,0.00,,2013-05-24 17:02:00,
2013-05-24 12:12:00,64.0,48.0,30.27,NE,35,0.0,5.0,57,0.00,,,0.00,,2013-05-24 17:12:00,
2013-05-24 12:22:00,65.0,46.0,30.27,NE,47,0.0,3.0,50,0.00,,,0.00,,2013-05-24 17:22:00,
2013-05-24 12:32:00,65.0,46.0,30.27,NE,34,0.0,7.0,51,0.00,,,0.00,,2013-05-24 17:32:00,
2013-05-24 12:41:00,65.0,46.0,30.27,NE,34,0.0,7.0,51,0.00,,,0.00,,2013-05-24 17:41:00,
2013-05-24 12:52:00,64.0,46.0,30.27,NNW,347,1.0,12.0,52,0.00,,,0.00,,2013-05-24 17:52:00,
2013-05-24 13:01:00,64.0,45.0,30.27,NE,49,1.0,8.0,50,0.00,,,0.00,,2013-05-24 18:01:00,
2013-05-24 13:11:00,64.0,45.0,30.27,NE,49,1.0,8.0,50,0.00,,,0.00,,2013-05-24 18:11:00,
2013-05-24 13:21:00,65.0,45.0,30.27,NNE,22,1.0,8.0,49,0.00,,,0.00,,2013-05-24 18:21:00,
2013-05-24 13:32:00,66.0,49.0,30.27,NNE,27,0.0,3.0,55,0.00,,,0.00,,2013-05-24 18:32:00,
2013-05-24 13:41:00,66.0,49.0,30.27,NNE,27,0.0,3.0,55,0.00,,,0.00,,2013-05-24 18:41:00,
2013-05-24 13:51:00,66.0,47.0,30.27,NNW,342,1.0,8.0,51,0.00,,,0.00,,2013-05-24 18:51:00,
2013-05-24 14:01:00,66.0,43.0,30.26,North,1,1.0,10.0,43,0.00,,,0.00,,2013-05-24 19:01:00,
2013-05-24 14:11:00,66.0,43.0,30.26,North,1,1.0,10.0,43,0.00,,,0.00,,2013-05-24 19:11:00,
2013-05-24 14:21:00,67.0,47.0,30.26,North,356,0.0,7.0,48,0.00,,,0.00,,2013-05-24 19:21:00,
2013-05-24 14:32:00,67.0,46.0,30.26,NNW,341,1.0,10.0,47,0.00,,,0.00,,2013-05-24 19:32:00,
2013-05-24 14:41:00,67.0,46.0,30.26,NNW,341,1.0,10.0,47,0.00,,,0.00,,2013-05-24 19:41:00,
2013-05-24 14:52:00,67.0,43.0,30.26,NNW,346,1.0,12.0,42,0.00,,,0.00,,2013-05-24 19:52:00,
2013-05-24 15:02:00,67.0,46.0,30.25,North,10,1.0,8.0,46,0.00,,,0.00,,2013-05-24 20:02:00,
2013-05-24 15:11:00,67.0,46.0,30.25,North,10,1.0,8.0,46,0.00,,,0.00,,2013-05-24 20:11:00,
2013-05-24 15:21:00,68.0,44.0,30.25,NNE,19,0.0,3.0,42,0.00,,,0.00,,2013-05-24 20:21:00,
2013-05-24 15:32:00,69.0,42.0,30.25,North,3,0.0,7.0,38,0.00,,,0.00,,2013-05-24 20:32:00,
2013-05-24 15:41:00,69.0,42.0,30.25,North,3,0.0,7.0,38,0.00,,,0.00,,2013-05-24 20:41:00,
2013-05-24 15:51:00,68.0,42.0,30.24,NNE,18,0.0,5.0,39,0.00,,,0.00,,2013-05-24 20:51:00,
2013-05-24 16:01:00,68.0,44.0,30.24,North,350,0.0,4.0,42,0.00,,,0.00,,2013-05-24 21:01:00,
2013-05-24 16:11:00,68.0,44.0,30.24,North,350,0.0,4.0,42,0.00,,,0.00,,2013-05-24 21:11:00,
2013-05-24 16:21:00,69.0,44.0,30.23,NE,45,0.0,3.0,40,0.00,,,0.00,,2013-05-24 21:21:00,
2013-05-24 16:32:00,69.0,45.0,30.23,NNE,24,0.0,4.0,42,0.00,,,0.00,,2013-05-24 21:32:00,
2013-05-24 16:42:00,69.0,45.0,30.23,NNE,24,0.0,4.0,42,0.00,,,0.00,,2013-05-24 21:42:00,
2013-05-24 16:53:00,70.0,45.0,30.22,NNE,13,0.0,3.0,41,0.00,,,0.00,,2013-05-24 21:53:00,
2013-05-24 17:02:00,70.0,45.0,30.22,North,7,0.0,3.0,41,0.00,,,0.00,,2013-05-24 22:02:00,
2013-05-24 17:12:00,70.0,45.0,30.22,North,7,0.0,3.0,41,0.00,,,0.00,,2013-05-24 22:12:00,
2013-05-24 17:22:00,70.0,45.0,30.22,NE,42,0.0,5.0,41,0.00,,,0.00,,2013-05-24 22:22:00,
2013-05-24 17:33:00,69.0,44.0,30.21,NE,51,0.0,5.0,40,0.00,,,0.00,,2013-05-24 22:33:00,
2013-05-24 17:42:00,69.0,44.0,30.21,NE,51,0.0,5.0,40,0.00,,,0.00,,2013-05-24 22:42:00,
2013-05-24 17:52:00,69.0,47.0,30.21,ENE,57,0.0,6.0,46,0.00,,,0.00,,2013-05-24 22:52:00,
2013-05-24 18:02:00,69.0,44.0,30.21,ENE,61,0.0,4.0,40,0.00,,,0.00,,2013-05-24 23:02:00,
2013-05-24 18:11:00,69.0,44.0,30.21,ENE,61,0.0,4.0,40,0.00,,,0.00,,2013-05-24 23:11:00,
2013-05-24 18:22:00,69.0,43.0,30.21,NE,49,0.0,3.0,39,0.00,,,0.00,,2013-05-24 23:22:00,
2013-05-24 18:32:00,69.0,43.0,30.20,NE,51,0.0,2.0,39,0.00,,,0.00,,2013-05-24 23:32:00,
2013-05-24 18:42:00,69.0,43.0,30.20,NE,51,0.0,2.0,39,0.00,,,0.00,,2013-05-24 23:42:00,
2013-05-24 18:52:00,69.0,44.0,30.20,NE,51,0.0,2.0,41,0.00,,,0.00,,2013-05-24 23:52:00,
2013-05-24 19:01:00,69.0,44.0,30.20,NE,51,0.0,1.0,41,0.00,,,0.00,,2013-05-25 00:01:00,
2013-05-24 19:11:00,69.0,44.0,30.20,NE,51,0.0,1.0,41,0.00,,,0.00,,2013-05-25 00:11:00,
2013-05-24 19:21:00,69.0,44.0,30.20,NE,51,0.0,1.0,41,0.00,,,0.00,,2013-05-25 00:21:00,
2013-05-24 19:32:00,69.0,44.0,30.20,NE,51,0.0,1.0,41,0.00,,,0.00,,2013-05-25 00:32:00,
2013-05-24 19:41:00,69.0,44.0,30.20,NE,51,0.0,1.0,41,0.00,,,0.00,,2013-05-25 00:41:00,
2013-05-24 19:51:00,69.0,44.0,30.21,NE,51,0.0,1.0,41,0.00,,,0.00,,2013-05-25 00:51:00,
2013-05-24 20:01:00,69.0,44.0,30.21,NE,51,0.0,1.0,41,0.00,,,0.00,,2013-05-25 01:01:00,
2013-05-24 20:11:00,69.0,44.0,30.21,NE,51,0.0,1.0,41,0.00,,,0.00,,2013-05-25 01:11:00,
2013-05-24 20:22:00,69.0,44.0,30.20,NE,51,0.0,1.0,41,0.00,,,0.00,,2013-05-25 01:22:00,
2013-05-24 20:32:00,69.0,44.0,30.20,NE,51,0.0,1.0,41,0.00,,,0.00,,2013-05-25 01:32:00,
2013-05-24 20:41:00,69.0,44.0,30.20,NE,51,0.0,1.0,41,0.00,,,0.00,,2013-05-25 01:41:00,
2013-05-24 20:52:00,69.0,44.0,30.20,NE,51,0.0,1.0,41,0.00,,,0.00,,2013-05-25 01:52:00,
2013-05-24 21:01:00,69.0,44.0,30.20,NE,51,0.0,1.0,41,0.00,,,0.00,,2013-05-25 02:01:00,
2013-05-24 21:11:00,69.0,44.0,30.20,NE,51,0.0,1.0,41,0.00,,,0.00,,2013-05-25 02:11:00,
2013-05-24 21:21:00,69.0,44.0,30.20,NE,51,0.0,1.0,41,0.00,,,0.00,,2013-05-25 02:21:00,
2013-05-24 21:31:00,69.0,44.0,30.21,NE,51,0.0,1.0,41,0.00,,,0.00,,2013-05-25 02:31:00,
2013-05-24 21:42:00,69.0,44.0,30.21,NE,51,0.0,1.0,41,0.00,,,0.00,,2013-05-25 02:42:00,
2013-05-24 21:51:00,69.0,44.0,30.21,NE,51,0.0,1.0,41,0.00,,,0.00,,2013-05-25 02:51:00,
2013-05-24 22:01:00,56.0,49.0,30.23,North,0,0.0,0.0,77,0.00,,,0.00,,2013-05-25 03:01:00,
2013-05-24 22:11:00,56.0,49.0,30.23,North,0,0.0,0.0,77,0.00,,,0.00,,2013-05-25 03:11:00,
2013-05-24 22:21:00,56.0,49.0,30.23,NE,52,0.0,1.0,76,0.00,,,0.00,,2013-05-25 03:21:00,
2013-05-24 22:32:00,57.0,49.0,30.23,North,0,0.0,0.0,75,0.00,,,0.00,,2013-05-25 03:32:00,
2013-05-24 22:43:00,57.0,49.0,30.23,North,0,0.0,0.0,75,0.00,,,0.00,,2013-05-25 03:43:00,
2013-05-24 22:53:00,56.0,50.0,30.23,North,0,0.0,0.0,79,0.00,,,0.00,,2013-05-25 03:53:00,
2013-05-24 23:02:00,55.0,50.0,30.24,North,0,0.0,0.0,82,0.00,,,0.00,,2013-05-25 04:02:00,
2013-05-24 23:13:00,55.0,50.0,30.24,North,0,0.0,0.0,82,0.00,,,0.00,,2013-05-25 04:13:00,
2013-05-24 23:23:00,54.0,49.0,30.25,North,0,0.0,0.0,84,0.00,,,0.00,,2013-05-25 04:23:00,
2013-05-24 23:33:00,54.0,50.0,30.25,North,0,0.0,0.0,85,0.00,,,0.00,,2013-05-25 04:33:00,
2013-05-24 23:43:00,54.0,50.0,30.25,North,0,0.0,0.0,85,0.00,,,0.00,,2013-05-25 04:43:00,
2013-05-24 23:53:00,54.0,50.0,30.24,North,0,0.0,0.0,86,0.00,,,0.00,,2013-05-25 04:53:00,